logo
Search for airport 
image banner adimage banner adimage banner ad
image banner ad

MRSR - Heli-Sahara

Located in Matina, Costa Rica

ICAO - MRSR, IATA - PLD

Data provided by Airmate  

General information

Coordinates: N10°8'37" W83°21'17"
Elevation is 10 feet MSL.
 
View others Airports in Guanacaste

Operational data

Special qualification required
Current time UTC:
Current local time:
Weather at : MRLM - Limon Intl ( 42 km )
TAF: MRLM 150525Z 1506/1606 23005KT 9999 FEW030 TX31/1521Z TN23/1511Z TEMPO 1510/1514 RA BKN015 BECMG 1514/1517 06006KT BECMG 1600/1603 24005KT
View NOTAMs / SUP AIP / TFR affecting this airport [VIEW]
Communications frequencies: [VIEW]

Runways:

Airport contact information

Address: Matina Costa Rica

Satellite view of MRSR